NXCC EGKR-EGKK
Flight info
| Callsign | NXCC |
|---|---|
| Flight time | 0h -13m |
| Altitude | 1500 |
| Route | VFR DEPARTURE TO THE NORTH THEN HOLD TO ENTER GATWICK CTR FULLSTOP GATWICK |
| Aircraft | C152 |
Departure
| Time | 2026-04-24 15:49 |
|---|---|
| Airport | Redhill Aerodrome (EGKR) |
Arrival
| Time | 2026-04-24 15:35 |
|---|---|
| Airport | London Gatwick Airport (EGKK) |
| Time | Latitude | Longitude | Altitude | Speed | Heading |
|---|---|---|---|---|---|
| 2026-04-24 15:35 | 51.21581 | -0.13916 | 208 ft | 0 kts | 144° |
| 2026-04-24 15:41 | 51.21578 | -0.13913 | 214 ft | 3 kts | 153° |
| 2026-04-24 15:41 | 51.21540 | -0.13911 | 208 ft | 8 kts | 124° |
| 2026-04-24 15:41 | 51.21525 | -0.13814 | 207 ft | 11 kts | 94° |
| 2026-04-24 15:41 | 51.21538 | -0.13648 | 208 ft | 18 kts | 76° |
| 2026-04-24 15:42 | 51.21559 | -0.13467 | 203 ft | 17 kts | 83° |
| 2026-04-24 15:42 | 51.21542 | -0.13327 | 204 ft | 12 kts | 122° |
| 2026-04-24 15:42 | 51.21498 | -0.13261 | 201 ft | 0 kts | 147° |
| 2026-04-24 15:45 | 51.21475 | -0.13245 | 206 ft | 9 kts | 171° |
| 2026-04-24 15:45 | 51.21447 | -0.13321 | 208 ft | 10 kts | 252° |
| 2026-04-24 15:45 | 51.21426 | -0.13448 | 204 ft | 14 kts | 255° |
| 2026-04-24 15:46 | 51.21397 | -0.13625 | 206 ft | 18 kts | 255° |
| 2026-04-24 15:46 | 51.21365 | -0.13816 | 207 ft | 18 kts | 255° |
| 2026-04-24 15:46 | 51.21331 | -0.14018 | 213 ft | 25 kts | 255° |
| 2026-04-24 15:46 | 51.21299 | -0.14198 | 212 ft | 24 kts | 254° |
| 2026-04-24 15:47 | 51.21263 | -0.14412 | 221 ft | 12 kts | 254° |
| 2026-04-24 15:47 | 51.21262 | -0.14444 | 222 ft | 5 kts | 91° |
| 2026-04-24 15:47 | 51.21263 | -0.14424 | 221 ft | 0 kts | 75° |
| 2026-04-24 15:48 | 51.21265 | -0.14407 | 220 ft | 13 kts | 76° |
| 2026-04-24 15:48 | 51.21337 | -0.13972 | 253 ft | 56 kts | 76° |
| 2026-04-24 15:48 | 51.21389 | -0.13585 | 437 ft | 50 kts | 78° |
| 2026-04-24 15:48 | 51.21445 | -0.13050 | 636 ft | 48 kts | 82° |
| 2026-04-24 15:49 | 51.21480 | -0.12492 | 802 ft | 56 kts | 82° |
| 2026-04-24 15:49 | 51.21542 | -0.11828 | 987 ft | 65 kts | 81° |
| 2026-04-24 15:49 | 51.21633 | -0.11121 | 1172 ft | 68 kts | 80° |
| 2026-04-24 15:49 | 51.21737 | -0.10401 | 1339 ft | 70 kts | 76° |
| 2026-04-24 15:50 | 51.22039 | -0.09760 | 1491 ft | 82 kts | 31° |
| 2026-04-24 15:50 | 51.22634 | -0.09490 | 1520 ft | 96 kts | 13° |
| 2026-04-24 15:50 | 51.23340 | -0.09670 | 1618 ft | 107 kts | 349° |
| 2026-04-24 15:50 | 51.24051 | -0.10036 | 1516 ft | 111 kts | 346° |
| 2026-04-24 15:51 | 51.24739 | -0.10534 | 1501 ft | 105 kts | 326° |
| 2026-04-24 15:51 | 51.25159 | -0.11454 | 1488 ft | 104 kts | 292° |
| 2026-04-24 15:51 | 51.25220 | -0.12634 | 1390 ft | 109 kts | 262° |
| 2026-04-24 15:51 | 51.24909 | -0.13701 | 1405 ft | 108 kts | 222° |
| 2026-04-24 15:52 | 51.24320 | -0.14356 | 1374 ft | 100 kts | 199° |
| 2026-04-24 15:52 | 51.23689 | -0.14648 | 1331 ft | 91 kts | 183° |
| 2026-04-24 15:52 | 51.23076 | -0.14828 | 1359 ft | 89 kts | 179° |
| 2026-04-24 15:52 | 51.22455 | -0.14961 | 1345 ft | 90 kts | 178° |
| 2026-04-24 15:53 | 51.21823 | -0.15055 | 1341 ft | 94 kts | 174° |
| 2026-04-24 15:53 | 51.21167 | -0.15110 | 1278 ft | 95 kts | 176° |
| 2026-04-24 15:53 | 51.20492 | -0.15157 | 1254 ft | 99 kts | 180° |
| 2026-04-24 15:53 | 51.19815 | -0.15473 | 1214 ft | 104 kts | 196° |
| 2026-04-24 15:54 | 51.19195 | -0.16082 | 1197 ft | 105 kts | 210° |
| 2026-04-24 15:54 | 51.18634 | -0.16786 | 1266 ft | 101 kts | 216° |
| 2026-04-24 15:54 | 51.18132 | -0.17571 | 1301 ft | 101 kts | 222° |
| 2026-04-24 15:54 | 51.17672 | -0.18440 | 1394 ft | 102 kts | 226° |
| 2026-04-24 15:55 | 51.17238 | -0.19347 | 1419 ft | 104 kts | 229° |
| 2026-04-24 15:55 | 51.16798 | -0.20306 | 1413 ft | 108 kts | 232° |
| 2026-04-24 15:55 | 51.16395 | -0.21298 | 1311 ft | 105 kts | 236° |
| 2026-04-24 15:55 | 51.16048 | -0.22292 | 1259 ft | 99 kts | 239° |
| 2026-04-24 15:56 | 51.15788 | -0.23292 | 1224 ft | 96 kts | 247° |
| 2026-04-24 15:56 | 51.15434 | -0.24169 | 1140 ft | 94 kts | 218° |
| 2026-04-24 15:56 | 51.14907 | -0.24631 | 1043 ft | 78 kts | 178° |
| 2026-04-24 15:56 | 51.14529 | -0.24460 | 1021 ft | 44 kts | 106° |
| 2026-04-24 15:57 | 51.14404 | -0.24002 | 921 ft | 47 kts | 102° |
| 2026-04-24 15:57 | 51.14286 | -0.23525 | 793 ft | 48 kts | 95° |
| 2026-04-24 15:57 | 51.14264 | -0.22979 | 641 ft | 50 kts | 78° |
| 2026-04-24 15:57 | 51.14324 | -0.22449 | 547 ft | 48 kts | 71° |
| 2026-04-24 15:58 | 51.14413 | -0.21924 | 430 ft | 50 kts | 75° |
| 2026-04-24 15:58 | 51.14487 | -0.21393 | 333 ft | 49 kts | 77° |
| 2026-04-24 15:58 | 51.14555 | -0.20894 | 259 ft | 46 kts | 76° |
| 2026-04-24 15:58 | 51.14622 | -0.20410 | 213 ft | 44 kts | 76° |
| 2026-04-24 15:59 | 51.14680 | -0.19977 | 199 ft | 32 kts | 79° |
| 2026-04-24 15:59 | 51.14715 | -0.19718 | 202 ft | 20 kts | 77° |
| 2026-04-24 15:59 | 51.14740 | -0.19531 | 200 ft | 15 kts | 78° |
| 2026-04-24 15:59 | 51.14767 | -0.19342 | 199 ft | 23 kts | 78° |
| 2026-04-24 16:00 | 51.14806 | -0.19055 | 200 ft | 28 kts | 78° |
| 2026-04-24 16:00 | 51.14849 | -0.18758 | 200 ft | 23 kts | 75° |
| 2026-04-24 16:00 | 51.14912 | -0.18560 | 199 ft | 18 kts | 52° |
| 2026-04-24 16:00 | 51.14990 | -0.18402 | 198 ft | 21 kts | 51° |
| 2026-04-24 16:01 | 51.15060 | -0.18265 | 197 ft | 5 kts | 50° |
| 2026-04-24 16:01 | 51.15065 | -0.18256 | 197 ft | 2 kts | 51° |
| 2026-04-24 16:01 | 51.15109 | -0.18167 | 198 ft | 14 kts | 60° |
| 2026-04-24 16:01 | 51.15163 | -0.18066 | 199 ft | 6 kts | 35° |
| 2026-04-24 16:02 | 51.15194 | -0.18070 | 198 ft | 0 kts | 348° |
| 2026-04-24 16:03 | 51.15203 | -0.18100 | 198 ft | 9 kts | 266° |
| 2026-04-24 16:03 | 51.15217 | -0.18207 | 198 ft | 9 kts | 325° |
| 2026-04-24 16:03 | 51.15238 | -0.18220 | 201 ft | 0 kts | 347° |